Hat Creek, California
Current Conditions -  °F | °C
As of 11:53 AM on Thursday 23 Oct 2014 (Local Time) from KRDD Reporting Station
Light Rain Light Rain  
Wind Chill: 58°   Ceiling: 6000
Heat Index: 58°   Visibility: 10mi
Dew Point: 56°   Wind: 3mph
Humidity: 93%   Direction: 20°NNE
Pressure: 30.07"   Gusts: NA
Location:  40.79°N, 121.51°W
Report Text: KRDD 231853Z 02003KT 10SM -RA SCT008 BKN060 OVC095 14/13 A3007 RMK AO2 RAE17B36 SLP180 P0001 T01440133
Loading
Personal Weather Stations






























Interactive Weather Map
Tropical Storm Tracking
New forecast layout! Learn more

10-Day Weather Forecast

Advertisements
Track Severe Weather on mobile